| time (UTC) | temp F | wind direction | speed MPH | gust MPH | rain 1hr in | rain 24hr in | rain mn in | humidity % | barometer mb |
| 20260509040646 | 49 | 205 | 0.0 | 0.0 | 0.00 | 0.00 | 0.00 | 74 | 1003.9 |
| 20260509040142 | 50 | 215 | 0.0 | 0.0 | 0.00 | 0.00 | 0.00 | 72 | 1003.8 |
| 20260509035639 | 50 | 217 | 0.0 | 1.0 | 0.00 | 0.00 | 0.00 | 71 | 1003.8 |
| 20260509035136 | 50 | 215 | 0.0 | 1.0 | 0.00 | 0.00 | 0.00 | 71 | 1003.8 |
| 20260509034634 | 50 | 221 | 1.0 | 2.0 | 0.00 | 0.00 | 0.00 | 71 | 1004.1 |
| 20260509034131 | 49 | 214 | 0.0 | 1.0 | 0.00 | 0.00 | 0.00 | 65 | 1004.0 |
| 20260509033628 | 48 | 220 | 1.0 | 1.0 | 0.00 | 0.00 | 0.00 | 62 | 1004.1 |
| 20260509033125 | 48 | 210 | 1.0 | 1.0 | 0.00 | 0.00 | 0.00 | 66 | 1003.9 |
| 20260509032622 | 48 | 163 | 0.0 | 0.0 | 0.00 | 0.00 | 0.00 | 64 | 1004.1 |
| 20260509032119 | 48 | 178 | 0.0 | 0.0 | 0.00 | 0.00 | 0.00 | 70 | 1004.3 |
| 20260509031617 | 49 | 207 | 0.0 | 0.0 | 0.00 | 0.00 | 0.00 | 70 | 1004.6 |
| 20260509031114 | 48 | 221 | 0.0 | 1.0 | 0.00 | 0.00 | 0.00 | 69 | 1004.6 |
| 20260509030612 | 48 | 200 | 0.0 | 0.0 | 0.00 | 0.00 | 0.00 | 72 | 1004.6 |
| 20260509030109 | 49 | 201 | 0.0 | 0.0 | 0.00 | 0.00 | 0.00 | 68 | 1004.7 |
| 20260509025604 | 50 | 217 | 0.0 | 1.0 | 0.00 | 0.00 | 0.00 | 61 | 1004.7 |
| 20260509025100 | 49 | 223 | 0.0 | 1.0 | 0.00 | 0.00 | 0.00 | 63 | 1004.6 |
| 20260509024556 | 49 | 204 | 0.0 | 0.0 | 0.00 | 0.00 | 0.00 | 70 | 1004.7 |
| 20260509024052 | 49 | 210 | 0.0 | 0.0 | 0.00 | 0.00 | 0.00 | 68 | 1004.9 |
| 20260509023550 | 49 | 214 | 0.0 | 0.0 | 0.00 | 0.00 | 0.00 | 61 | 1004.7 |
| 20260509023047 | 49 | 188 | 0.0 | 0.0 | 0.00 | 0.00 | 0.00 | 55 | 1004.9 |
| 20260509022543 | 49 | 188 | 0.0 | 0.0 | 0.00 | 0.00 | 0.00 | 55 | 1004.7 |
| 20260509022041 | 50 | 188 | 0.0 | 0.0 | 0.00 | 0.00 | 0.00 | 52 | 1004.7 |
| 20260509021538 | 50 | 188 | 0.0 | 0.0 | 0.00 | 0.00 | 0.00 | 51 | 1004.5 |
| 20260509021035 | 50 | 188 | 0.0 | 0.0 | 0.00 | 0.00 | 0.00 | 51 | 1004.7 |
| 20260509020533 | 51 | 188 | 0.0 | 0.0 | 0.00 | 0.00 | 0.00 | 50 | 1004.4 |
| 20260509020030 | 52 | 187 | 0.0 | 0.0 | 0.00 | 0.00 | 0.00 | 49 | 1004.6 |
| 20260509015529 | 52 | 186 | 0.0 | 0.0 | 0.00 | 0.00 | 0.00 | 47 | 1004.5 |
| 20260509015026 | 53 | 198 | 0.0 | 0.0 | 0.00 | 0.00 | 0.00 | 47 | 1004.6 |
| 20260509014522 | 54 | 184 | 0.0 | 0.0 | 0.00 | 0.00 | 0.00 | 46 | 1004.6 |
| 20260509014019 | 55 | 184 | 0.0 | 0.0 | 0.00 | 0.00 | 0.00 | 45 | 1004.7 |
| 20260509013516 | 55 | 199 | 0.0 | 0.0 | 0.00 | 0.00 | 0.00 | 43 | 1004.5 |
| 20260509013011 | 57 | 210 | 0.0 | 0.0 | 0.00 | 0.00 | 0.00 | 42 | 1004.7 |
| 20260509012508 | 58 | 213 | 0.0 | 0.0 | 0.00 | 0.00 | 0.00 | 40 | 1004.9 |
| 20260509012005 | 59 | 275 | 0.0 | 1.0 | 0.00 | 0.00 | 0.00 | 37 | 1004.9 |
| 20260509011503 | 59 | 20 | 3.0 | 3.0 | 0.00 | 0.00 | 0.00 | 36 | 1004.9 |
| 20260509011000 | 59 | 289 | 1.0 | 2.0 | 0.00 | 0.00 | 0.00 | 38 | 1004.9 |
| 20260509010458 | 59 | 14 | 2.0 | 2.0 | 0.00 | 0.00 | 0.00 | 38 | 1004.9 |
| 20260509005954 | 60 | 19 | 1.0 | 3.0 | 0.00 | 0.00 | 0.00 | 39 | 1004.9 |
| 20260509005452 | 61 | 335 | 1.0 | 2.0 | 0.00 | 0.00 | 0.00 | 36 | 1005.0 |
| 20260509004946 | 61 | 348 | 4.0 | 4.0 | 0.00 | 0.00 | 0.00 | 36 | 1005.0 |
| 20260509004443 | 62 | 10 | 3.0 | 4.0 | 0.00 | 0.00 | 0.00 | 37 | 1005.0 |
| 20260509003941 | 62 | 328 | 3.0 | 3.0 | 0.00 | 0.00 | 0.00 | 36 | 1005.2 |
| 20260509003439 | 62 | 348 | 5.0 | 6.0 | 0.00 | 0.00 | 0.00 | 34 | 1005.0 |
| 20260509002935 | 62 | 36 | 3.0 | 6.0 | 0.00 | 0.00 | 0.00 | 35 | 1004.9 |
| 20260509002433 | 62 | 46 | 5.0 | 9.0 | 0.00 | 0.00 | 0.00 | 34 | 1005.0 |
| 20260509001930 | 62 | 340 | 5.0 | 9.0 | 0.00 | 0.00 | 0.00 | 34 | 1005.0 |
| 20260509001427 | 63 | 358 | 6.0 | 11.0 | 0.00 | 0.00 | 0.00 | 34 | 1005.1 |
| 20260509000923 | 63 | 266 | 3.0 | 13.0 | 0.00 | 0.00 | 0.00 | 35 | 1005.0 |
| 20260509000421 | 63 | 314 | 4.0 | 10.0 | 0.00 | 0.00 | 0.00 | 35 | 1005.0 |
| 20260508235916 | 63 | 311 | 8.0 | 16.0 | 0.00 | 0.00 | 0.00 | 33 | 1005.0 |
| 20260508235414 | 64 | 344 | 9.0 | 11.0 | 0.00 | 0.00 | 0.00 | 33 | 1005.0 |
| 20260508234906 | 64 | 34 | 4.0 | 9.0 | 0.00 | 0.00 | 0.00 | 34 | 1005.0 |
| 20260508234402 | 64 | 331 | 7.0 | 11.0 | 0.00 | 0.00 | 0.00 | 33 | 1004.9 |
| 20260508233900 | 64 | 6 | 10.0 | 16.0 | 0.00 | 0.00 | 0.00 | 33 | 1004.7 |
| 20260508233400 | 64 | 283 | 9.0 | 18.0 | 0.00 | 0.00 | 0.00 | 32 | 1004.9 |
| 20260508232856 | 64 | 255 | 6.0 | 9.0 | 0.00 | 0.00 | 0.00 | 33 | 1004.7 |
| 20260508232352 | 64 | 58 | 6.0 | 14.0 | 0.00 | 0.00 | 0.00 | 33 | 1004.6 |
| 20260508231851 | 64 | 280 | 12.0 | 23.0 | 0.00 | 0.00 | 0.00 | 33 | 1004.6 |
| 20260508231347 | 65 | 303 | 7.0 | 17.0 | 0.00 | 0.00 | 0.00 | 32 | 1004.6 |
| 20260508230844 | 65 | 260 | 5.0 | 8.0 | 0.00 | 0.00 | 0.00 | 33 | 1005.1 |
| 20260508230340 | 65 | 297 | 11.0 | 13.0 | 0.00 | 0.00 | 0.00 | 31 | 1004.9 |
| 20260508225838 | 65 | 312 | 9.0 | 14.0 | 0.00 | 0.00 | 0.00 | 32 | 1005.0 |
| 20260508225334 | 65 | 327 | 4.0 | 16.0 | 0.00 | 0.00 | 0.00 | 34 | 1004.6 |
| 20260508224833 | 65 | 280 | 11.0 | 13.0 | 0.00 | 0.00 | 0.00 | 31 | 1005.0 |
| 20260508224330 | 66 | 280 | 7.0 | 11.0 | 0.00 | 0.00 | 0.00 | 32 | 1004.6 |
| 20260508223827 | 66 | 319 | 5.0 | 17.0 | 0.00 | 0.00 | 0.00 | 31 | 1004.6 |
| 20260508223324 | 66 | 294 | 14.0 | 18.0 | 0.00 | 0.00 | 0.00 | 30 | 1004.4 |
| 20260508222822 | 66 | 338 | 6.0 | 11.0 | 0.00 | 0.00 | 0.00 | 31 | 1004.3 |
| 20260508222319 | 67 | 278 | 11.0 | 15.0 | 0.00 | 0.00 | 0.00 | 31 | 1004.2 |
| 20260508221815 | 66 | 325 | 9.0 | 14.0 | 0.00 | 0.00 | 0.00 | 32 | 1004.2 |
| 20260508221311 | 67 | 313 | 6.0 | 10.0 | 0.00 | 0.00 | 0.00 | 32 | 1004.3 |
| 20260508220807 | 67 | 316 | 6.0 | 15.0 | 0.00 | 0.00 | 0.00 | 31 | 1004.2 |
| 20260508220304 | 67 | 308 | 13.0 | 16.0 | 0.00 | 0.00 | 0.00 | 31 | 1004.3 |
| 20260508215801 | 67 | 274 | 11.0 | 15.0 | 0.00 | 0.00 | 0.00 | 31 | 1004.4 |
| 20260508215257 | 67 | 275 | 17.0 | 19.0 | 0.00 | 0.00 | 0.00 | 30 | 1004.1 |
| 20260508214754 | 67 | 301 | 18.0 | 25.0 | 0.00 | 0.00 | 0.00 | 30 | 1004.1 |
| 20260508214251 | 68 | 358 | 9.0 | 15.0 | 0.00 | 0.00 | 0.00 | 30 | 1004.1 |
| 20260508213748 | 68 | 334 | 10.0 | 21.0 | 0.00 | 0.00 | 0.00 | 28 | 1004.3 |
| 20260508213245 | 68 | 288 | 13.0 | 21.0 | 0.00 | 0.00 | 0.00 | 27 | 1004.2 |
| 20260508212741 | 68 | 287 | 9.0 | 11.0 | 0.00 | 0.00 | 0.00 | 29 | 1004.1 |
| 20260508212237 | 68 | 354 | 4.0 | 8.0 | 0.00 | 0.00 | 0.00 | 28 | 1004.0 |
| 20260508211733 | 69 | 358 | 9.0 | 11.0 | 0.00 | 0.00 | 0.00 | 28 | 1004.0 |
| 20260508211229 | 68 | 281 | 9.0 | 10.0 | 0.00 | 0.00 | 0.00 | 27 | 1004.0 |
| 20260508210727 | 67 | 301 | 2.0 | 11.0 | 0.00 | 0.00 | 0.00 | 30 | 1004.2 |
| 20260508210224 | 66 | 266 | 8.0 | 16.0 | 0.00 | 0.00 | 0.00 | 27 | 1004.1 |
| 20260508205720 | 67 | 296 | 11.0 | 18.0 | 0.00 | 0.00 | 0.00 | 26 | 1004.0 |
| 20260508205217 | 68 | 346 | 7.0 | 16.0 | 0.00 | 0.00 | 0.00 | 27 | 1004.2 |
| 20260508204713 | 68 | 262 | 13.0 | 16.0 | 0.00 | 0.00 | 0.00 | 25 | 1004.1 |
| 20260508204209 | 68 | 290 | 6.0 | 9.0 | 0.00 | 0.00 | 0.00 | 29 | 1004.2 |
| 20260508203705 | 67 | 339 | 7.0 | 13.0 | 0.00 | 0.00 | 0.00 | 28 | 1004.3 |
| 20260508203202 | 68 | 287 | 9.0 | 17.0 | 0.00 | 0.00 | 0.00 | 26 | 1004.4 |
| 20260508202658 | 68 | 316 | 8.0 | 15.0 | 0.00 | 0.00 | 0.00 | 27 | 1004.2 |
| 20260508202155 | 67 | 296 | 7.0 | 9.0 | 0.00 | 0.00 | 0.00 | 27 | 1004.4 |
| 20260508201652 | 68 | 296 | 5.0 | 11.0 | 0.00 | 0.00 | 0.00 | 30 | 1004.4 |
| 20260508201149 | 69 | 247 | 8.0 | 13.0 | 0.00 | 0.00 | 0.00 | 25 | 1004.2 |
| 20260508200646 | 69 | 319 | 12.0 | 16.0 | 0.00 | 0.00 | 0.00 | 25 | 1004.5 |
| 20260508200142 | 68 | 262 | 9.0 | 11.0 | 0.00 | 0.00 | 0.00 | 24 | 1004.5 |
| 20260508195639 | 67 | 238 | 6.0 | 8.0 | 0.00 | 0.00 | 0.00 | 27 | 1004.6 |
| 20260508195135 | 67 | 324 | 10.0 | 14.0 | 0.00 | 0.00 | 0.00 | 26 | 1004.6 |
| 20260508194632 | 67 | 256 | 7.0 | 11.0 | 0.00 | 0.00 | 0.00 | 25 | 1004.5 |
| 20260508194129 | 68 | 222 | 3.0 | 7.0 | 0.00 | 0.00 | 0.00 | 27 | 1004.6 |
| 20260508193626 | 66 | 272 | 4.0 | 16.0 | 0.00 | 0.00 | 0.00 | 28 | 1004.7 |
| 20260508193122 | 68 | 348 | 3.0 | 6.0 | 0.00 | 0.00 | 0.00 | 30 | 1004.6 |
| 20260508192619 | 68 | 278 | 8.0 | 11.0 | 0.00 | 0.00 | 0.00 | 24 | 1005.0 |
| 20260508192116 | 66 | 237 | 7.0 | 11.0 | 0.00 | 0.00 | 0.00 | 25 | 1005.0 |
| 20260508191613 | 67 | 293 | 2.0 | 13.0 | 0.00 | 0.00 | 0.00 | 28 | 1005.0 |
| 20260508191110 | 69 | 280 | 11.0 | 15.0 | 0.00 | 0.00 | 0.00 | 24 | 1005.2 |
| 20260508190607 | 68 | 193 | 7.0 | 11.0 | 0.00 | 0.00 | 0.00 | 26 | 1005.1 |
| 20260508190103 | 67 | 243 | 6.0 | 9.0 | 0.00 | 0.00 | 0.00 | 27 | 1005.1 |
| 20260508185600 | 67 | 262 | 4.0 | 7.0 | 0.00 | 0.00 | 0.00 | 26 | 1005.0 |
| 20260508185058 | 68 | 233 | 8.0 | 11.0 | 0.00 | 0.00 | 0.00 | 25 | 1005.3 |
| 20260508184555 | 67 | 338 | 2.0 | 6.0 | 0.00 | 0.00 | 0.00 | 31 | 1005.3 |
| 20260508184051 | 67 | 295 | 3.0 | 7.0 | 0.00 | 0.00 | 0.00 | 28 | 1005.5 |
| 20260508183542 | 66 | 241 | 7.0 | 9.0 | 0.00 | 0.00 | 0.00 | 28 | 1005.4 |
| 20260508183038 | 67 | 254 | 3.0 | 9.0 | 0.00 | 0.00 | 0.00 | 25 | 1005.3 |
| 20260508182535 | 66 | 233 | 5.0 | 7.0 | 0.00 | 0.00 | 0.00 | 25 | 1005.5 |
| 20260508182032 | 66 | 276 | 5.0 | 7.0 | 0.00 | 0.00 | 0.00 | 28 | 1005.5 |
| 20260508181527 | 65 | 290 | 7.0 | 8.0 | 0.00 | 0.00 | 0.00 | 28 | 1005.7 |
| 20260508181025 | 65 | 290 | 5.0 | 9.0 | 0.00 | 0.00 | 0.00 | 29 | 1005.6 |
| 20260508180521 | 64 | 261 | 3.0 | 7.0 | 0.00 | 0.00 | 0.00 | 30 | 1005.6 |
| 20260508180018 | 65 | 341 | 5.0 | 8.0 | 0.00 | 0.00 | 0.00 | 27 | 1005.9 |
| 20260508175514 | 64 | 254 | 1.0 | 8.0 | 0.00 | 0.00 | 0.00 | 32 | 1005.9 |
| 20260508175012 | 66 | 243 | 6.0 | 7.0 | 0.00 | 0.00 | 0.00 | 26 | 1005.9 |
| 20260508174509 | 65 | 244 | 2.0 | 4.0 | 0.00 | 0.00 | 0.00 | 30 | 1006.0 |
| 20260508174006 | 64 | 225 | 4.0 | 4.0 | 0.00 | 0.00 | 0.00 | 27 | 1006.2 |
| 20260508173503 | 64 | 226 | 7.0 | 8.0 | 0.00 | 0.00 | 0.00 | 28 | 1006.4 |
| 20260508172959 | 64 | 264 | 2.0 | 9.0 | 0.00 | 0.00 | 0.00 | 31 | 1006.2 |
| 20260508172456 | 63 | 237 | 6.0 | 9.0 | 0.00 | 0.00 | 0.00 | 28 | 1006.5 |
| 20260508171952 | 64 | 240 | 8.0 | 13.0 | 0.00 | 0.00 | 0.00 | 27 | 1006.6 |
| 20260508171449 | 64 | 184 | 3.0 | 7.0 | 0.00 | 0.00 | 0.00 | 28 | 1006.8 |
| 20260508170945 | 63 | 256 | 4.0 | 7.0 | 0.00 | 0.00 | 0.00 | 27 | 1006.7 |
| 20260508170443 | 62 | 255 | 2.0 | 6.0 | 0.00 | 0.00 | 0.00 | 30 | 1006.7 |
| 20260508165939 | 64 | 242 | 6.0 | 8.0 | 0.00 | 0.00 | 0.00 | 27 | 1007.0 |
| 20260508165438 | 63 | 225 | 4.0 | 7.0 | 0.00 | 0.00 | 0.00 | 27 | 1006.8 |
| 20260508164933 | 62 | 240 | 4.0 | 9.0 | 0.00 | 0.00 | 0.00 | 30 | 1007.0 |
| 20260508164430 | 63 | 314 | 6.0 | 9.0 | 0.00 | 0.00 | 0.00 | 28 | 1007.0 |
| 20260508163927 | 64 | 225 | 2.0 | 4.0 | 0.00 | 0.00 | 0.00 | 27 | 1007.1 |
| 20260508163425 | 64 | 264 | 9.0 | 10.0 | 0.00 | 0.00 | 0.00 | 27 | 1007.2 |
| 20260508162920 | 63 | 312 | 4.0 | 8.0 | 0.00 | 0.00 | 0.00 | 31 | 1007.1 |
| 20260508162418 | 63 | 97 | 1.0 | 3.0 | 0.00 | 0.00 | 0.00 | 28 | 1007.0 |
| 20260508161915 | 63 | 274 | 2.0 | 3.0 | 0.00 | 0.00 | 0.00 | 30 | 1007.0 |
| 20260508161412 | 62 | 268 | 2.0 | 3.0 | 0.00 | 0.00 | 0.00 | 31 | 1007.0 |
| 20260508160909 | 62 | 212 | 2.0 | 4.0 | 0.00 | 0.00 | 0.00 | 32 | 1007.1 |
| 20260508160408 | 62 | 220 | 2.0 | 7.0 | 0.00 | 0.00 | 0.00 | 29 | 1007.4 |
| 20260508155904 | 62 | 226 | 2.0 | 4.0 | 0.00 | 0.00 | 0.00 | 31 | 1007.5 |
| 20260508155402 | 62 | 277 | 2.0 | 4.0 | 0.00 | 0.00 | 0.00 | 30 | 1007.5 |
| 20260508154858 | 62 | 235 | 4.0 | 6.0 | 0.00 | 0.00 | 0.00 | 32 | 1007.5 |
| 20260508154356 | 62 | 243 | 1.0 | 8.0 | 0.00 | 0.00 | 0.00 | 29 | 1007.4 |
| 20260508153852 | 62 | 252 | 3.0 | 4.0 | 0.00 | 0.00 | 0.00 | 31 | 1007.5 |
| 20260508153349 | 61 | 255 | 1.0 | 1.0 | 0.00 | 0.00 | 0.00 | 29 | 1007.5 |
| 20260508152845 | 60 | 255 | 2.0 | 3.0 | 0.00 | 0.00 | 0.00 | 35 | 1007.8 |
| 20260508152342 | 60 | 243 | 1.0 | 2.0 | 0.00 | 0.00 | 0.00 | 33 | 1007.5 |
| 20260508151838 | 61 | 231 | 2.0 | 4.0 | 0.00 | 0.00 | 0.00 | 36 | 1007.7 |
| 20260508151335 | 60 | 218 | 1.0 | 4.0 | 0.00 | 0.00 | 0.00 | 31 | 1007.9 |
| 20260508150832 | 60 | 225 | 1.0 | 6.0 | 0.00 | 0.00 | 0.00 | 33 | 1007.8 |
| 20260508150329 | 59 | 353 | 1.0 | 3.0 | 0.00 | 0.00 | 0.00 | 36 | 1008.0 |
| 20260508145825 | 59 | 199 | 1.0 | 2.0 | 0.00 | 0.00 | 0.00 | 40 | 1007.9 |
| 20260508145321 | 58 | 217 | 0.0 | 2.0 | 0.00 | 0.00 | 0.00 | 41 | 1007.9 |
| 20260508144818 | 57 | 235 | 2.0 | 3.0 | 0.00 | 0.00 | 0.00 | 41 | 1007.9 |
| 20260508144315 | 57 | 238 | 3.0 | 4.0 | 0.00 | 0.00 | 0.00 | 42 | 1008.0 |
| 20260508143807 | 55 | 214 | 2.0 | 3.0 | 0.00 | 0.00 | 0.00 | 42 | 1008.2 |
| 20260508143304 | 55 | 211 | 2.0 | 4.0 | 0.00 | 0.00 | 0.00 | 48 | 1008.2 |
| 20260508142801 | 54 | 237 | 1.0 | 4.0 | 0.00 | 0.00 | 0.00 | 52 | 1008.3 |
| 20260508142258 | 54 | 243 | 2.0 | 3.0 | 0.00 | 0.00 | 0.00 | 51 | 1008.2 |
| 20260508141754 | 53 | 222 | 3.0 | 3.0 | 0.00 | 0.00 | 0.00 | 54 | 1008.1 |
| 20260508141251 | 52 | 255 | 3.0 | 4.0 | 0.00 | 0.00 | 0.00 | 57 | 1008.6 |
| 20260508140749 | 52 | 260 | 2.0 | 4.0 | 0.00 | 0.00 | 0.00 | 60 | 1008.4 |
| 20260508140245 | 51 | 228 | 3.0 | 6.0 | 0.00 | 0.00 | 0.00 | 57 | 1008.6 |
| 20260508135741 | 50 | 266 | 2.0 | 4.0 | 0.00 | 0.00 | 0.00 | 64 | 1008.4 |
| 20260508135238 | 50 | 214 | 2.0 | 3.0 | 0.00 | 0.00 | 0.00 | 62 | 1008.6 |
| 20260508134733 | 49 | 225 | 3.0 | 6.0 | 0.00 | 0.00 | 0.00 | 63 | 1008.3 |
| 20260508134231 | 48 | 225 | 4.0 | 4.0 | 0.00 | 0.00 | 0.00 | 64 | 1008.5 |
| 20260508133727 | 48 | 225 | 4.0 | 6.0 | 0.00 | 0.00 | 0.00 | 67 | 1008.4 |
| 20260508133225 | 48 | 234 | 3.0 | 4.0 | 0.00 | 0.00 | 0.00 | 64 | 1008.5 |
| 20260508132722 | 48 | 219 | 2.0 | 2.0 | 0.00 | 0.00 | 0.00 | 67 | 1008.5 |
| 20260508132220 | 47 | 229 | 0.0 | 1.0 | 0.00 | 0.00 | 0.00 | 72 | 1008.4 |
| 20260508131715 | 46 | 231 | 0.0 | 1.0 | 0.00 | 0.00 | 0.00 | 70 | 1008.5 |
| 20260508131212 | 46 | 251 | 1.0 | 1.0 | 0.00 | 0.00 | 0.00 | 70 | 1008.3 |
| 20260508130709 | 46 | 243 | 1.0 | 1.0 | 0.00 | 0.00 | 0.00 | 69 | 1008.3 |
| 20260508130206 | 46 | 254 | 1.0 | 1.0 | 0.00 | 0.00 | 0.00 | 72 | 1008.4 |
| 20260508125701 | 46 | 314 | 0.0 | 1.0 | 0.00 | 0.00 | 0.00 | 73 | 1008.6 |
| 20260508125158 | 45 | 6 | 0.0 | 1.0 | 0.00 | 0.00 | 0.00 | 73 | 1008.6 |
| 20260508124656 | 45 | 31 | 0.0 | 0.0 | 0.00 | 0.00 | 0.00 | 73 | 1008.5 |
| 20260508124153 | 45 | 339 | 2.0 | 2.0 | 0.00 | 0.00 | 0.00 | 74 | 1008.6 |
| 20260508123651 | 45 | 242 | 1.0 | 2.0 | 0.00 | 0.00 | 0.00 | 72 | 1008.4 |
| 20260508123149 | 45 | 267 | 1.0 | 1.0 | 0.00 | 0.00 | 0.00 | 71 | 1008.4 |
| 20260508122644 | 44 | 250 | 1.0 | 2.0 | 0.00 | 0.00 | 0.00 | 71 | 1008.6 |
| 20260508122141 | 44 | 215 | 0.0 | 0.0 | 0.00 | 0.00 | 0.00 | 74 | 1008.4 |
| 20260508121640 | 44 | 228 | 0.0 | 1.0 | 0.00 | 0.00 | 0.00 | 71 | 1008.5 |
| 20260508121138 | 43 | 283 | 1.0 | 1.0 | 0.00 | 0.00 | 0.00 | 72 | 1008.7 |
| 20260508120635 | 43 | 247 | 1.0 | 2.0 | 0.00 | 0.00 | 0.00 | 76 | 1008.6 |
| 20260508120133 | 43 | 278 | 1.0 | 2.0 | 0.00 | 0.00 | 0.00 | 79 | 1008.3 |
| 20260508115631 | 42 | 299 | 1.0 | 3.0 | 0.00 | 0.00 | 0.00 | 82 | 1008.5 |
| 20260508115127 | 41 | 227 | 2.0 | 2.0 | 0.00 | 0.00 | 0.00 | 82 | 1008.2 |
| 20260508114624 | 41 | 218 | 0.0 | 0.0 | 0.00 | 0.00 | 0.00 | 83 | 1008.5 |
| 20260508114120 | 41 | 218 | 0.0 | 0.0 | 0.00 | 0.00 | 0.00 | 84 | 1008.1 |
| 20260508113617 | 41 | 218 | 0.0 | 2.0 | 0.00 | 0.00 | 0.00 | 84 | 1008.2 |
| 20260508113116 | 39 | 183 | 1.0 | 1.0 | 0.00 | 0.00 | 0.00 | 89 | 1008.2 |
| 20260508112611 | 39 | 126 | 0.0 | 1.0 | 0.00 | 0.00 | 0.00 | 89 | 1008.0 |
| 20260508112109 | 40 | 229 | 0.0 | 0.0 | 0.00 | 0.00 | 0.00 | 89 | 1008.3 |
| 20260508111605 | 39 | 229 | 0.0 | 1.0 | 0.00 | 0.00 | 0.00 | 90 | 1008.4 |
| 20260508111102 | 38 | 170 | 0.0 | 1.0 | 0.00 | 0.00 | 0.00 | 93 | 1008.3 |
| 20260508110601 | 37 | 164 | 0.0 | 0.0 | 0.00 | 0.00 | 0.00 | 92 | 1008.4 |
| 20260508110056 | 36 | 164 | 1.0 | 2.0 | 0.00 | 0.00 | 0.00 | 89 | 1008.2 |
| 20260508105551 | 36 | 356 | 1.0 | 1.0 | 0.00 | 0.00 | 0.00 | 89 | 1008.3 |
| 20260508105049 | 36 | 101 | 1.0 | 2.0 | 0.00 | 0.00 | 0.00 | 89 | 1008.3 |
| 20260508104546 | 35 | 120 | 0.0 | 0.0 | 0.00 | 0.00 | 0.00 | 90 | 1008.2 |
| 20260508104042 | 34 | 112 | 0.0 | 1.0 | 0.00 | 0.00 | 0.00 | 92 | 1008.2 |
| 20260508103540 | 33 | 114 | 0.0 | 1.0 | 0.00 | 0.00 | 0.00 | 91 | 1008.1 |
| 20260508103037 | 34 | 107 | 0.0 | 0.0 | 0.00 | 0.00 | 0.00 | 90 | 1008.3 |
| 20260508102534 | 35 | 103 | 0.0 | 1.0 | 0.00 | 0.00 | 0.00 | 89 | 1008.2 |
| 20260508102032 | 35 | 127 | 0.0 | 0.0 | 0.00 | 0.00 | 0.00 | 89 | 1008.5 |
| 20260508101529 | 35 | 143 | 0.0 | 0.0 | 0.00 | 0.00 | 0.00 | 89 | 1008.3 |
| 20260508101026 | 35 | 141 | 0.0 | 0.0 | 0.00 | 0.00 | 0.00 | 89 | 1008.2 |
| 20260508100525 | 35 | 141 | 0.0 | 0.0 | 0.00 | 0.00 | 0.00 | 89 | 1008.3 |
| 20260508100021 | 35 | 141 | 0.0 | 0.0 | 0.00 | 0.00 | 0.00 | 90 | 1008.3 |
| 20260508095518 | 35 | 157 | 0.0 | 0.0 | 0.00 | 0.00 | 0.00 | 91 | 1008.5 |
| 20260508095015 | 35 | 156 | 0.0 | 0.0 | 0.00 | 0.00 | 0.00 | 90 | 1008.5 |
| 20260508094512 | 35 | 157 | 0.0 | 0.0 | 0.00 | 0.00 | 0.00 | 90 | 1008.4 |
| 20260508094009 | 35 | 156 | 0.0 | 0.0 | 0.00 | 0.00 | 0.00 | 89 | 1008.6 |
| 20260508093506 | 35 | 132 | 0.0 | 0.0 | 0.00 | 0.00 | 0.00 | 89 | 1008.6 |
| 20260508093004 | 35 | 136 | 0.0 | 0.0 | 0.00 | 0.00 | 0.00 | 88 | 1008.6 |
| 20260508092500 | 36 | 147 | 0.0 | 0.0 | 0.00 | 0.00 | 0.00 | 89 | 1008.3 |
| 20260508092000 | 35 | 157 | 0.0 | 0.0 | 0.00 | 0.00 | 0.00 | 89 | 1008.7 |
| 20260508091455 | 35 | 157 | 0.0 | 0.0 | 0.00 | 0.00 | 0.00 | 89 | 1008.6 |
| 20260508090948 | 35 | 149 | 0.0 | 0.0 | 0.00 | 0.00 | 0.00 | 87 | 1008.7 |
| 20260508090446 | 35 | 126 | 0.0 | 0.0 | 0.00 | 0.00 | 0.00 | 87 | 1008.6 |
| 20260508085941 | 35 | 141 | 0.0 | 0.0 | 0.00 | 0.00 | 0.00 | 88 | 1008.6 |
| 20260508085438 | 35 | 123 | 0.0 | 1.0 | 0.00 | 0.00 | 0.00 | 87 | 1008.7 |
| 20260508084935 | 35 | 127 | 0.0 | 0.0 | 0.00 | 0.00 | 0.00 | 88 | 1008.6 |
| 20260508084432 | 35 | 123 | 0.0 | 0.0 | 0.00 | 0.00 | 0.00 | 88 | 1008.6 |
| 20260508083930 | 35 | 108 | 0.0 | 1.0 | 0.00 | 0.00 | 0.00 | 88 | 1008.7 |
| 20260508083426 | 35 | 91 | 0.0 | 1.0 | 0.00 | 0.00 | 0.00 | 87 | 1008.8 |
| 20260508082921 | 36 | 88 | 1.0 | 1.0 | 0.00 | 0.00 | 0.00 | 87 | 1008.8 |
| 20260508082418 | 37 | 142 | 0.0 | 0.0 | 0.00 | 0.00 | 0.00 | 88 | 1008.8 |
| 20260508081916 | 37 | 165 | 0.0 | 0.0 | 0.00 | 0.00 | 0.00 | 88 | 1008.7 |
| 20260508081413 | 37 | 165 | 0.0 | 0.0 | 0.00 | 0.00 | 0.00 | 87 | 1009.0 |
| 20260508080909 | 36 | 165 | 0.0 | 0.0 | 0.00 | 0.00 | 0.00 | 84 | 1009.0 |
| 20260508080408 | 36 | 165 | 0.0 | 0.0 | 0.00 | 0.00 | 0.00 | 89 | 1009.0 |
| 20260508075903 | 36 | 165 | 0.0 | 0.0 | 0.00 | 0.00 | 0.00 | 89 | 1008.9 |
| 20260508075401 | 36 | 165 | 0.0 | 0.0 | 0.00 | 0.00 | 0.00 | 88 | 1008.8 |
| 20260508074859 | 36 | 134 | 0.0 | 0.0 | 0.00 | 0.00 | 0.00 | 87 | 1008.9 |
| 20260508074355 | 36 | 129 | 0.0 | 0.0 | 0.00 | 0.00 | 0.00 | 87 | 1008.8 |
| 20260508073852 | 37 | 112 | 0.0 | 0.0 | 0.00 | 0.00 | 0.00 | 89 | 1008.9 |
| 20260508073350 | 38 | 155 | 0.0 | 0.0 | 0.00 | 0.00 | 0.00 | 90 | 1008.9 |
| 20260508072846 | 38 | 163 | 0.0 | 0.0 | 0.00 | 0.00 | 0.00 | 91 | 1009.1 |
| 20260508072343 | 38 | 174 | 0.0 | 0.0 | 0.00 | 0.00 | 0.00 | 90 | 1009.0 |
| 20260508071840 | 38 | 174 | 0.0 | 0.0 | 0.00 | 0.00 | 0.00 | 90 | 1009.2 |
| 20260508071339 | 38 | 174 | 0.0 | 0.0 | 0.00 | 0.00 | 0.00 | 88 | 1009.1 |
| 20260508070837 | 37 | 168 | 0.0 | 0.0 | 0.00 | 0.00 | 0.00 | 86 | 1009.0 |
| 20260508070334 | 37 | 168 | 0.0 | 0.0 | 0.00 | 0.00 | 0.00 | 82 | 1009.2 |
| 20260508065831 | 37 | 168 | 0.0 | 0.0 | 0.00 | 0.00 | 0.00 | 80 | 1009.3 |
| 20260508065329 | 37 | 168 | 0.0 | 0.0 | 0.00 | 0.00 | 0.00 | 77 | 1009.0 |
| 20260508064827 | 37 | 168 | 0.0 | 0.0 | 0.00 | 0.00 | 0.00 | 77 | 1009.3 |
| 20260508064324 | 37 | 168 | 0.0 | 0.0 | 0.00 | 0.00 | 0.00 | 76 | 1009.2 |
| 20260508063822 | 37 | 168 | 0.0 | 0.0 | 0.00 | 0.00 | 0.00 | 75 | 1009.2 |
| 20260508063320 | 38 | 168 | 0.0 | 0.0 | 0.00 | 0.00 | 0.00 | 73 | 1009.2 |
| 20260508062817 | 39 | 166 | 0.0 | 0.0 | 0.00 | 0.00 | 0.00 | 71 | 1009.3 |
| 20260508062314 | 39 | 143 | 0.0 | 0.0 | 0.00 | 0.00 | 0.00 | 71 | 1009.3 |
| 20260508061811 | 38 | 165 | 0.0 | 0.0 | 0.00 | 0.00 | 0.00 | 73 | 1009.3 |
| 20260508061309 | 39 | 186 | 0.0 | 0.0 | 0.00 | 0.00 | 0.00 | 72 | 1009.2 |
| 20260508060804 | 39 | 186 | 0.0 | 0.0 | 0.00 | 0.00 | 0.00 | 71 | 1009.4 |
| 20260508060302 | 39 | 183 | 0.0 | 0.0 | 0.00 | 0.00 | 0.00 | 71 | 1009.3 |
| 20260508055757 | 40 | 160 | 0.0 | 0.0 | 0.00 | 0.00 | 0.00 | 71 | 1009.4 |
| 20260508055254 | 40 | 133 | 0.0 | 0.0 | 0.00 | 0.00 | 0.00 | 70 | 1009.3 |
| 20260508054750 | 41 | 129 | 0.0 | 0.0 | 0.00 | 0.00 | 0.00 | 68 | 1009.4 |
| 20260508054249 | 40 | 158 | 0.0 | 0.0 | 0.00 | 0.00 | 0.00 | 70 | 1009.7 |
| 20260508053745 | 41 | 158 | 0.0 | 0.0 | 0.00 | 0.00 | 0.00 | 69 | 1009.6 |
| 20260508053243 | 41 | 158 | 0.0 | 0.0 | 0.00 | 0.00 | 0.00 | 69 | 1009.7 |
| 20260508052739 | 42 | 111 | 0.0 | 0.0 | 0.00 | 0.00 | 0.00 | 67 | 1009.9 |
| 20260508052237 | 42 | 161 | 1.0 | 1.0 | 0.00 | 0.00 | 0.00 | 68 | 1009.5 |
| 20260508051733 | 42 | 93 | 1.0 | 2.0 | 0.00 | 0.00 | 0.00 | 71 | 1009.6 |
| 20260508051228 | 42 | 188 | 0.0 | 2.0 | 0.00 | 0.00 | 0.00 | 75 | 1009.6 |
| 20260508050725 | 41 | 227 | 0.0 | 0.0 | 0.00 | 0.00 | 0.00 | 86 | 1009.5 |
| 20260508050222 | 42 | 227 | 0.0 | 0.0 | 0.00 | 0.00 | 0.00 | 83 | 1009.4 |
| 20260508045718 | 42 | 227 | 0.0 | 0.0 | 0.00 | 0.00 | 0.00 | 83 | 1009.6 |
| 20260508045216 | 41 | 227 | 0.0 | 0.0 | 0.00 | 0.00 | 0.00 | 82 | 1009.6 |
| 20260508044714 | 41 | 227 | 0.0 | 0.0 | 0.00 | 0.00 | 0.00 | 81 | 1009.5 |
| 20260508044210 | 42 | 227 | 0.0 | 0.0 | 0.00 | 0.00 | 0.00 | 82 | 1009.5 |
| 20260508043706 | 42 | 228 | 0.0 | 0.0 | 0.00 | 0.00 | 0.00 | 82 | 1009.6 |
| 20260508043204 | 42 | 228 | 0.0 | 0.0 | 0.00 | 0.00 | 0.00 | 79 | 1009.7 |
| 20260508042700 | 42 | 228 | 0.0 | 0.0 | 0.00 | 0.00 | 0.00 | 78 | 1009.6 |
| 20260508042158 | 42 | 228 | 0.0 | 0.0 | 0.00 | 0.00 | 0.00 | 79 | 1009.9 |
| 20260508041654 | 43 | 228 | 0.0 | 0.0 | 0.00 | 0.00 | 0.00 | 79 | 1009.7 |
| 20260508041151 | 43 | 228 | 0.0 | 1.0 | 0.00 | 0.00 | 0.00 | 78 | 1009.7 |